EW3221 Lothian MD US current weather conditions

sailwx.info

Wind from 205

Air temperature 2.8° C
Dewpoint -4.9° C

Last reported at 2019-Dec-11 21:01 UTC.
Time now 2019-Dec-11 22:07 UTC

Location: N 38°46' W 076°40'.
View on Google Maps.

See reports from other nearby stations

  
Tides and Currents Weather Stations Pressure Air Temp Water Temp Dewpoint Dewpoint Depression Visibility Wind Speed Wind Dir Waves Ship Positions
date/time (UTC)wind fromknots sea level pressurealtimeterstation pressurevisibilityair tempwater tempwave heightnotes
2019-Dec-11 21:01 205 2.8
2019-Dec-11 20:47 273 2.8
2019-Dec-11 20:32 284 2.8
2019-Dec-11 20:16 074 3.3
2019-Dec-11 20:01 262 3.3
2019-Dec-11 19:46 278 1 gusting 6 3.3
2019-Dec-11 19:32 266 3.3
2019-Dec-11 19:15 297 6 gusting 12 3.9
2019-Dec-11 19:01 301 0 gusting 7 3.9
2019-Dec-11 18:46 283 3 gusting 10 3.9
2019-Dec-11 18:31 292 1 gusting 11 3.9
2019-Dec-11 18:16 288 4 gusting 9 4.4
2019-Dec-11 18:02 290 4.4
2019-Dec-11 17:45 319 4 gusting 12 4.4
2019-Dec-11 17:31 296 5 gusting 13 4.4
2019-Dec-11 17:15 284 6 gusting 11 4.4
2019-Dec-11 17:00 281 5 gusting 11 3.9
2019-Dec-11 16:46 291 6 gusting 11 3.3
2019-Dec-11 16:31 312 4 gusting 11 3.3
2019-Dec-11 16:15 323 6 gusting 16 2.8
2019-Dec-11 16:01 312 4 gusting 11 2.8
2019-Dec-11 15:45 261 0 gusting 10 2.2
2019-Dec-11 15:30 319 7 gusting 13 2.2
2019-Dec-11 15:15 284 7 gusting 13 2.2
2019-Dec-11 15:00 285 5 gusting 13 2.2
2019-Dec-11 14:45 316 4 gusting 13 1.7
2019-Dec-11 14:30 288 6 gusting 13 1.7
2019-Dec-11 14:15 302 4 gusting 11 1.7
2019-Dec-11 14:00 272 0 gusting 6 0.6
2019-Dec-11 13:32 292 2 gusting 6 0.6
2019-Dec-11 13:18 305 0 gusting 6 0.6
2019-Dec-11 13:02 298 4 gusting 8 -0.0
2019-Dec-11 12:49 298 1 gusting 6 -0.0
2019-Dec-11 12:31 301 2 gusting 6 -0.0
2019-Dec-11 12:17 306 1 gusting 6 -0.0
2019-Dec-11 12:02 290 -0.0
2019-Dec-11 11:48 308 0 gusting 6 -0.0
2019-Dec-11 11:31 312 1 gusting 12 -0.0
2019-Dec-11 11:16 281 5 gusting 12 -0.0
2019-Dec-11 11:01 326 3 gusting 6 -0.0
2019-Dec-11 10:48 326 5 gusting 7 -0.0
2019-Dec-11 10:33 310 6 gusting 9 -0.0
2019-Dec-11 10:18 316 4 gusting 9 -0.0
2019-Dec-11 10:01 313 6 gusting 11 -0.0
2019-Dec-11 09:46 309 4 gusting 10 -0.0
2019-Dec-11 09:31 306 3 gusting 6 -0.6
2019-Dec-11 09:16 321 3 gusting 7 -0.0
2019-Dec-11 09:01 326 6 gusting 10 -0.0
2019-Dec-11 08:46 327 8 gusting 15 0.6
2019-Dec-11 08:31 306 5 gusting 12 1.1
2019-Dec-11 08:15 317 6 gusting 11 1.1
2019-Dec-11 08:00 298 4 gusting 11 1.1
2019-Dec-11 07:45 312 4 gusting 12 1.1
2019-Dec-11 07:30 340 6 gusting 12 1.1
2019-Dec-11 07:15 319 6 gusting 13 1.1
2019-Dec-11 07:00 302 7 gusting 15 1.1
2019-Dec-11 06:46 300 7 gusting 16 1.1
2019-Dec-11 06:30 301 7 gusting 14 1.7
2019-Dec-11 06:15 325 6 gusting 11 1.7
2019-Dec-11 05:47 304 7 gusting 13 2.8
2019-Dec-11 05:32 319 8 gusting 17 3.3
2019-Dec-11 05:17 287 6 gusting 13 3.3
2019-Dec-11 05:02 320 8 gusting 14 3.9
2019-Dec-11 04:47 281 6 gusting 14 4.4
2019-Dec-11 04:32 319 3 gusting 16 4.4
2019-Dec-11 04:16 321 2 gusting 11 5.0
2019-Dec-11 04:03 318 6 gusting 13 5.6
2019-Dec-11 03:46 278 5 gusting 14 5.6
2019-Dec-11 03:31 284 6 gusting 13 6.1
2019-Dec-11 03:17 337 6 gusting 13 6.1
2019-Dec-11 03:00 321 5 gusting 11 6.7
2019-Dec-11 02:47 315 6 gusting 9 6.7
2019-Dec-11 02:31 327 6 gusting 11 7.2
2019-Dec-11 02:16 323 4 gusting 9 7.2
2019-Dec-11 02:00 308 4 gusting 10 7.2
2019-Dec-11 01:45 288 7.8
2019-Dec-11 01:30 309 7.8
2019-Dec-11 01:15 294 4 gusting 12 8.3
2019-Dec-11 01:00 316 9 gusting 15 8.9
2019-Dec-11 00:49 313 1 gusting 9 9.4
2019-Dec-11 00:33 334 6 gusting 16 10.0
2019-Dec-11 00:17 290 3 gusting 11 10.6
2019-Dec-11 00:02 293 0 gusting 6 10.6
2019-Dec-10 23:48 306 10.6
2019-Dec-10 23:32 292 10.6
2019-Dec-10 23:17 261 11.1
2019-Dec-10 23:03 284 3 gusting 12 11.1
2019-Dec-10 22:46 324 1 gusting 13 11.7
2019-Dec-10 22:32 314 0 gusting 3 11.7
2019-Dec-10 22:18 306 11.7
2019-Dec-10 22:02 302 0 gusting 3 11.7
2019-Dec-10 21:46 296 12.2
2019-Dec-10 21:31 299 12.2
2019-Dec-10 21:16 314 1 gusting 6 12.2
2019-Dec-10 21:01 255 4 gusting 11 12.8
2019-Dec-10 20:46 298 5 gusting 21 13.9
2019-Dec-10 20:30 292 1 gusting 5 15.0
2019-Dec-10 20:16 300 0 gusting 4 15.0
2019-Dec-10 20:00 296 15.0
2019-Dec-10 19:46 205 15.0
2019-Dec-10 19:30 221 15.0
2019-Dec-10 19:16 174 15.0
2019-Dec-10 19:00 232 15.0
2019-Dec-10 18:46 216 15.0
2019-Dec-10 18:30 224 0 gusting 6 15.0
2019-Dec-10 18:15 215 1 gusting 8 15.0
2019-Dec-10 18:01 212 0 gusting 6 15.0
2019-Dec-10 17:45 216 15.0
2019-Dec-10 17:31 217 1 gusting 7 15.0
2019-Dec-10 17:15 229 0 gusting 6 15.0
2019-Dec-10 17:00 173 0 gusting 6 15.0
2019-Dec-10 16:45 210 15.0
2019-Dec-10 16:34 227 14.4
2019-Dec-10 16:17 188 0 gusting 9 14.4
2019-Dec-10 16:04 176 0 gusting 6 14.4
2019-Dec-10 15:47 184 14.4
2019-Dec-10 15:32 196 2 gusting 6 14.4
2019-Dec-10 15:17 192 1 gusting 6 14.4
2019-Dec-10 15:01 181 4 gusting 9 14.4
2019-Dec-10 14:47 171 3 gusting 9 14.4
2019-Dec-10 14:32 195 3 gusting 10 14.4
2019-Dec-10 14:17 211 3 gusting 9 14.4
2019-Dec-10 14:01 168 4 gusting 11 13.9
2019-Dec-10 13:46 202 0 gusting 14 13.9
2019-Dec-10 13:35 205 3 gusting 10 13.9
2019-Dec-10 13:16 185 2 gusting 7 13.3
2019-Dec-10 13:01 215 1 gusting 7 13.3
2019-Dec-10 12:46 187 2 gusting 9 13.3
2019-Dec-10 12:31 173 2 gusting 8 13.3
2019-Dec-10 12:16 238 3 gusting 11 13.3
2019-Dec-10 12:01 163 6 gusting 12 12.8
2019-Dec-10 11:47 184 3 gusting 10 12.8
2019-Dec-10 11:31 214 1 gusting 8 12.8
2019-Dec-10 11:16 173 2 gusting 9 13.3
2019-Dec-10 11:00 180 0 gusting 6 12.8
2019-Dec-10 10:47 194 3 gusting 8 12.8
2019-Dec-10 10:31 204 4 gusting 9 12.8
2019-Dec-10 10:15 225 3 gusting 10 12.8
2019-Dec-10 10:00 196 1 gusting 13 12.8
2019-Dec-10 09:46 173 2 gusting 10 12.8
2019-Dec-10 09:31 233 2 gusting 9 12.8
2019-Dec-10 09:16 223 1 gusting 7 12.8
2019-Dec-10 09:00 217 1 gusting 11 12.2
2019-Dec-10 08:45 200 3 gusting 8 12.2
2019-Dec-10 08:30 174 1 gusting 7 12.2
2019-Dec-10 08:15 198 2 gusting 7 12.2
2019-Dec-10 08:00 195 0 gusting 7 12.2
2019-Dec-10 07:45 151 1 gusting 13 11.7
2019-Dec-10 07:30 209 3 gusting 8 11.7
2019-Dec-10 07:15 230 2 gusting 12 11.7
2019-Dec-10 07:00 163 2 gusting 9 11.7
2019-Dec-10 06:45 185 5 gusting 13 11.7
2019-Dec-10 06:30 158 1 gusting 13 11.7
2019-Dec-10 06:15 188 3 gusting 12 11.7
2019-Dec-10 06:00 157 2 gusting 11 11.7
2019-Dec-10 05:46 173 5 gusting 12 11.7
2019-Dec-10 05:31 199 4 gusting 16 11.7
2019-Dec-10 05:17 194 5 gusting 13 11.7
2019-Dec-10 05:03 193 3 gusting 12 11.7
2019-Dec-10 04:46 215 4 gusting 17 12.2
2019-Dec-10 04:31 205 6 gusting 18 12.2
2019-Dec-10 04:16 185 6 gusting 16 12.2
2019-Dec-10 04:02 223 4 gusting 13 12.8
2019-Dec-10 03:46 238 7 gusting 19 12.8
2019-Dec-10 03:32 204 3 gusting 18 12.8
2019-Dec-10 03:16 215 5 gusting 25 12.8
2019-Dec-10 03:01 207 4 gusting 24 12.2
2019-Dec-10 02:46 184 7 gusting 20 12.2
2019-Dec-10 02:31 234 5 gusting 16 11.7
2019-Dec-10 02:16 206 3 gusting 13 11.7
2019-Dec-10 02:02 205 1 gusting 8 11.1
2019-Dec-10 01:45 200 1 gusting 6 11.1
2019-Dec-10 01:30 190 11.1
2019-Dec-10 01:15 253 1 gusting 9 10.6
2019-Dec-10 01:00 181 0 gusting 8 10.6
2019-Dec-10 00:46 170 2 gusting 8 10.6
2019-Dec-10 00:30 202 4 gusting 10 10.0
2019-Dec-10 00:15 192 4 gusting 10 10.0
2019-Dec-10 00:01 186 1 gusting 10 10.0
2019-Dec-09 23:45 215 1 gusting 7 9.4
2019-Dec-09 23:30 165 3 gusting 13 8.9
2019-Dec-09 23:15 207 0 gusting 4 8.9
2019-Dec-09 23:00 161 8.9
2019-Dec-09 22:45 184 8.9
2019-Dec-09 22:30 200 8.3
2019-Dec-09 22:15 179 8.3
2019-Dec-09 22:00 176 8.3